Time;durP1;ratioP1;P1;durP2;ratioP2;P2;SDS_P1;SDS_P2;PMS_P1;PMS_P2;Temp;Humidity;BMP_temperature;BMP_pressure;BME280_temperature;BME280_humidity;BME280_pressure;Samples;Min_cycle;Max_cycle;Signal;HPM_P1;HPM_P2
2021/12/30 00:02:07;;;;;;;1.93;1.60;;;;;;;10.87;100.00;100143.06;5011598;28;20186;-51
2021/12/30 00:04:33;;;;;;;2.10;1.90;;;;;;;10.90;100.00;100153.38;5016870;28;20199;-51
2021/12/30 00:06:58;;;;;;;2.60;2.40;;;;;;;10.89;100.00;100149.09;5017390;28;20780;-51
2021/12/30 00:09:25;;;;;;;2.70;2.40;;;;;;;10.92;100.00;100163.72;5015842;28;20212;-51
2021/12/30 00:11:51;;;;;;;2.33;2.13;;;;;;;10.92;100.00;100161.13;5013418;28;20671;-50
2021/12/30 00:14:16;;;;;;;4.50;3.03;;;;;;;10.97;100.00;100162.78;5010912;28;20180;-50
2021/12/30 00:16:41;;;;;;;2.30;1.90;;;;;;;11.01;100.00;100166.22;5015620;28;20267;-50
2021/12/30 00:19:07;;;;;;;2.00;1.53;;;;;;;11.05;100.00;100174.78;5013104;28;20409;-51
2021/12/30 00:21:32;;;;;;;2.03;1.60;;;;;;;11.09;100.00;100177.31;5011113;28;20193;-51
2021/12/30 00:23:58;;;;;;;1.77;1.60;;;;;;;11.15;100.00;100184.13;5008156;28;20971;-51
2021/12/30 00:26:23;;;;;;;2.30;1.20;;;;;;;11.17;100.00;100184.97;5010208;28;20196;-51
2021/12/30 00:28:49;;;;;;;1.33;1.20;;;;;;;11.17;100.00;100191.91;5014879;28;20224;-50
2021/12/30 00:31:15;;;;;;;1.80;1.13;;;;;;;11.16;100.00;100188.44;5009153;28;20187;-52
2021/12/30 00:33:42;;;;;;;1.20;1.10;;;;;;;11.15;100.00;100202.28;5011157;28;20198;-51
2021/12/30 00:36:09;;;;;;;1.00;0.90;;;;;;;11.13;100.00;100194.53;5012374;28;20261;-51
2021/12/30 00:38:36;;;;;;;1.83;1.47;;;;;;;11.13;100.00;100201.44;5011483;28;20211;-51
2021/12/30 00:41:02;;;;;;;2.20;1.30;;;;;;;11.12;100.00;100210.06;5016741;28;20528;-51
2021/12/30 00:43:28;;;;;;;1.70;1.50;;;;;;;11.13;100.00;100219.56;5018356;28;20195;-51
2021/12/30 00:45:53;;;;;;;1.30;1.20;;;;;;;11.14;100.00;100221.28;5020827;28;20469;-51
2021/12/30 00:48:19;;;;;;;1.30;1.20;;;;;;;11.15;100.00;100216.97;5016249;28;20683;-51
2021/12/30 00:50:46;;;;;;;1.37;1.27;;;;;;;11.16;100.00;100223.88;5025316;28;20614;-51
2021/12/30 00:53:12;;;;;;;2.00;1.00;;;;;;;11.18;100.00;100222.97;5013526;28;20196;-50
2021/12/30 00:55:39;;;;;;;2.57;1.40;;;;;;;11.22;100.00;100236.72;5014113;28;20282;-52
2021/12/30 00:58:06;;;;;;;2.27;1.30;;;;;;;11.25;100.00;100239.28;5017400;28;20207;-50
2021/12/30 01:00:33;;;;;;;1.80;1.47;;;;;;;11.25;100.00;100234.09;5014077;28;20184;-50
2021/12/30 01:02:59;;;;;;;1.83;1.00;;;;;;;11.24;100.00;100235.84;5010059;28;20350;-50
2021/12/30 01:05:24;;;;;;;1.50;1.10;;;;;;;11.23;100.00;100235.84;5008626;28;20236;-51
2021/12/30 01:07:51;;;;;;;1.53;0.93;;;;;;;11.23;100.00;100241.03;5012441;28;20247;-51
2021/12/30 01:10:20;;;;;;;1.10;1.00;;;;;;;11.23;100.00;100257.44;5013052;28;20324;-51
2021/12/30 01:12:46;;;;;;;2.43;1.00;;;;;;;11.23;100.00;100262.63;5014593;28;20687;-51
2021/12/30 01:15:13;;;;;;;1.63;1.33;;;;;;;11.24;100.00;100255.69;5018642;28;20664;-51
2021/12/30 01:17:47;;;;;;;;;;;;;;;;;;;;;
2021/12/30 01:20:07;;;;;;;1.83;1.07;;;;;;;11.24;100.00;100248.81;5017109;28;20659;-51
2021/12/30 01:22:36;;;;;;;2.17;1.40;;;;;;;11.26;100.00;100260.00;5012364;28;20200;-51
2021/12/30 01:25:06;;;;;;;1.23;1.07;;;;;;;11.30;100.00;100263.41;5020357;28;20188;-51
2021/12/30 01:27:33;;;;;;;1.17;1.07;;;;;;;11.34;100.00;100261.63;5019086;28;20425;-51
2021/12/30 01:29:59;;;;;;;2.17;1.30;;;;;;;11.40;100.00;100262.41;5014099;28;20306;-51
2021/12/30 01:32:27;;;;;;;1.80;1.20;;;;;;;11.44;100.00;100253.72;5008555;28;20287;-50
2021/12/30 01:34:52;;;;;;;1.33;1.00;;;;;;;11.50;100.00;100260.56;5014053;28;20227;-51
2021/12/30 01:37:23;;;;;;;1.53;1.13;;;;;;;11.54;100.00;100276.91;5012875;28;20215;-51
2021/12/30 01:39:48;;;;;;;1.83;0.90;;;;;;;11.58;100.00;100273.41;5020191;28;20184;-51
2021/12/30 01:42:14;;;;;;;2.13;1.10;;;;;;;11.62;100.00;100266.44;5021706;28;20180;-50
2021/12/30 01:44:40;;;;;;;2.77;1.00;;;;;;;11.66;100.00;100276.75;5018415;28;20196;-51
2021/12/30 01:47:07;;;;;;;1.10;0.90;;;;;;;11.71;100.00;100272.38;5018469;28;20934;-50
2021/12/30 01:49:32;;;;;;;3.27;1.20;;;;;;;11.74;100.00;100279.22;5014995;28;20220;-51
2021/12/30 01:51:58;;;;;;;2.47;1.07;;;;;;;11.77;100.00;100274.00;5017160;28;20877;-51
2021/12/30 01:54:25;;;;;;;1.33;0.80;;;;;;;11.79;100.00;100274.84;5014596;28;20189;-51
2021/12/30 01:56:52;;;;;;;1.63;1.10;;;;;;;11.83;100.00;100280.84;5020380;28;20219;-52
2021/12/30 01:59:19;;;;;;;1.00;0.70;;;;;;;11.83;100.00;100280.84;5035847;28;20197;-51
2021/12/30 02:01:45;;;;;;;1.63;0.93;;;;;;;11.85;100.00;100297.25;5037405;28;20200;-51
2021/12/30 02:04:11;;;;;;;2.80;1.00;;;;;;;11.87;100.00;100303.25;5021008;28;20713;-51
2021/12/30 02:06:37;;;;;;;1.87;0.90;;;;;;;11.90;100.00;100300.63;5024234;28;20199;-51
2021/12/30 02:09:03;;;;;;;0.87;0.80;;;;;;;11.96;100.00;100312.66;5022174;28;20589;-51
2021/12/30 02:11:29;;;;;;;2.33;1.00;;;;;;;11.97;100.00;100310.03;5021886;28;20216;-51
2021/12/30 02:13:56;;;;;;;1.30;0.90;;;;;;;12.00;100.00;100315.22;5018150;28;20241;-51
2021/12/30 02:16:22;;;;;;;2.17;0.90;;;;;;;12.00;100.00;100310.00;5013613;28;20228;-51
2021/12/30 02:18:48;;;;;;;1.70;0.93;;;;;;;11.98;100.00;100308.31;5020570;28;20218;-51
2021/12/30 02:21:14;;;;;;;1.37;0.80;;;;;;;11.96;100.00;100307.47;5025799;28;20188;-51
2021/12/30 02:23:40;;;;;;;2.60;0.70;;;;;;;11.94;100.00;100306.63;5019054;28;20192;-50
2021/12/30 02:26:09;;;;;;;1.77;1.00;;;;;;;11.91;100.00;100315.31;5022923;28;20662;-51
2021/12/30 02:28:36;;;;;;;1.03;0.90;;;;;;;11.90;100.00;100305.81;5011523;28;20693;-51
2021/12/30 02:31:06;;;;;;;1.27;0.80;;;;;;;11.88;100.00;100308.41;5010057;28;20203;-51
2021/12/30 02:33:31;;;;;;;1.97;0.90;;;;;;;11.86;100.00;100307.59;5012957;28;20670;-51
2021/12/30 02:35:57;;;;;;;1.83;1.17;;;;;;;11.84;100.00;100314.53;5017452;28;20191;-50
2021/12/30 02:38:23;;;;;;;1.83;0.90;;;;;;;11.82;100.00;100316.28;5023199;28;20203;-50
2021/12/30 02:40:53;;;;;;;0.83;0.60;;;;;;;11.82;100.00;100320.59;5021614;28;20192;-50
2021/12/30 02:43:27;;;;;;;1.00;0.87;;;;;;;11.83;100.00;100318.00;5017203;28;20312;-50
2021/12/30 02:45:55;;;;;;;0.80;0.70;;;;;;;11.81;100.00;100330.13;5021952;28;20196;-50
2021/12/30 02:48:28;;;;;;;1.00;0.63;;;;;;;11.83;100.00;100328.38;5013521;28;20278;-50
2021/12/30 02:50:56;;;;;;;1.00;0.90;;;;;;;11.83;100.00;100323.19;5016182;28;20197;-50
2021/12/30 02:53:22;;;;;;;3.57;0.80;;;;;;;11.86;100.00;100332.66;5014638;28;20207;-51
2021/12/30 02:55:49;;;;;;;0.83;0.70;;;;;;;11.87;100.00;100330.03;5015561;28;20188;-51
2021/12/30 02:58:15;;;;;;;2.27;0.77;;;;;;;11.89;100.00;100330.03;5021468;28;20273;-51
2021/12/30 03:00:42;;;;;;;2.57;1.00;;;;;;;11.93;100.00;100336.91;5013943;28;20574;-50
2021/12/30 03:03:16;;;;;;;0.90;0.80;;;;;;;11.93;100.00;100334.31;5015480;28;20468;-51
2021/12/30 03:05:42;;;;;;;0.90;0.80;;;;;;;11.95;100.00;100339.47;5022827;28;20215;-50
2021/12/30 03:08:07;;;;;;;0.70;0.70;;;;;;;11.97;100.00;100330.78;5016248;28;20208;-51
2021/12/30 03:10:33;;;;;;;1.10;0.80;;;;;;;11.96;100.00;100326.47;5014156;28;20196;-51
2021/12/30 03:13:04;;;;;;;1.43;0.70;;;;;;;11.98;100.00;100321.28;5021646;28;20290;-50
2021/12/30 03:15:32;;;;;;;1.00;0.70;;;;;;;12.00;100.00;100329.94;5024099;28;20256;-51
2021/12/30 03:17:57;;;;;;;1.23;0.80;;;;;;;12.00;100.00;100333.34;5018370;28;20212;-50
2021/12/30 03:20:22;;;;;;;0.93;0.70;;;;;;;12.00;100.00;100340.31;5019568;28;20227;-50
2021/12/30 03:22:48;;;;;;;1.10;0.73;;;;;;;12.00;100.00;100328.19;5022016;28;20285;-50
2021/12/30 03:25:15;;;;;;;1.00;0.80;;;;;;;12.01;100.00;100337.66;5017399;28;20196;-50
2021/12/30 03:27:42;;;;;;;0.80;0.60;;;;;;;12.02;100.00;100352.34;5027043;28;20210;-50
2021/12/30 03:30:11;;;;;;;1.20;0.67;;;;;;;12.02;100.00;100354.09;5020812;28;20211;-51
2021/12/30 03:32:37;;;;;;;0.97;0.60;;;;;;;12.01;100.00;100344.63;5014267;28;20200;-51
2021/12/30 03:35:03;;;;;;;0.90;0.70;;;;;;;12.00;100.00;100358.47;5016128;28;20193;-50
2021/12/30 03:37:29;;;;;;;0.80;0.50;;;;;;;12.00;100.00;100354.09;5015538;28;20247;-51
2021/12/30 03:39:54;;;;;;;1.73;0.80;;;;;;;11.99;100.00;100362.78;5018010;28;20664;-51
2021/12/30 03:42:20;;;;;;;1.33;0.63;;;;;;;12.00;100.00;100361.03;5022411;28;20197;-51
2021/12/30 03:44:45;;;;;;;0.90;0.50;;;;;;;12.00;100.00;100369.66;5018536;28;20719;-50
2021/12/30 03:47:15;;;;;;;1.67;0.80;;;;;;;11.99;100.00;100370.56;5015170;28;20212;-51
2021/12/30 03:49:45;;;;;;;1.10;0.70;;;;;;;11.98;100.00;100374.03;5021792;28;20224;-51
2021/12/30 03:52:20;;;;;;;1.70;0.50;;;;;;;11.98;100.00;100381.81;5019477;28;20266;-51
2021/12/30 03:54:47;;;;;;;1.13;0.80;;;;;;;11.97;100.00;100380.06;5018678;28;20668;-50
2021/12/30 03:57:13;;;;;;;1.00;0.90;;;;;;;11.96;100.00;100380.09;5018662;28;20219;-51
2021/12/30 03:59:38;;;;;;;0.80;0.80;;;;;;;11.95;100.00;100371.44;5021818;28;20184;-52
2021/12/30 04:02:04;;;;;;;1.00;0.90;;;;;;;11.97;100.00;100384.41;5012579;28;20662;-50
2021/12/30 04:04:29;;;;;;;1.27;0.90;;;;;;;11.95;100.00;100389.59;5017308;28;20281;-51
2021/12/30 04:06:55;;;;;;;1.67;0.80;;;;;;;11.96;100.00;100387.88;5018130;28;20254;-50
2021/12/30 04:09:21;;;;;;;1.37;0.80;;;;;;;11.94;100.00;100395.69;5016945;28;20222;-50
2021/12/30 04:11:46;;;;;;;0.90;0.60;;;;;;;11.94;100.00;100398.28;5016988;28;20399;-50
2021/12/30 04:14:12;;;;;;;2.03;0.70;;;;;;;11.94;100.00;100402.59;5020237;28;20190;-51
2021/12/30 04:16:37;;;;;;;1.67;1.10;;;;;;;11.94;100.00;100402.59;5012811;28;20190;-50
2021/12/30 04:19:04;;;;;;;0.70;0.50;;;;;;;11.94;100.00;100410.38;5014476;28;20192;-50
2021/12/30 04:21:30;;;;;;;1.50;0.73;;;;;;;11.94;100.00;100405.19;5014102;28;20184;-50
2021/12/30 04:23:55;;;;;;;2.23;0.70;;;;;;;11.93;100.00;100401.75;5012061;28;20196;-50
2021/12/30 04:26:21;;;;;;;0.63;0.50;;;;;;;11.93;100.00;100399.16;5015383;28;20200;-50
2021/12/30 04:28:46;;;;;;;1.00;0.60;;;;;;;11.94;100.00;100398.28;5021160;28;20676;-51
2021/12/30 04:31:12;;;;;;;0.47;0.40;;;;;;;11.95;100.00;100401.72;5017020;28;20751;-50
2021/12/30 04:33:37;;;;;;;1.90;0.80;;;;;;;11.95;100.00;100404.31;5009648;28;20198;-51
2021/12/30 04:36:04;;;;;;;1.27;0.60;;;;;;;11.96;100.00;100404.25;5016640;28;20194;-51
2021/12/30 04:38:31;;;;;;;1.50;0.60;;;;;;;11.97;100.00;100405.13;5008102;28;20252;-51
2021/12/30 04:40:57;;;;;;;1.37;0.60;;;;;;;11.97;100.00;100416.38;5016644;28;20188;-51
2021/12/30 04:43:22;;;;;;;0.67;0.40;;;;;;;11.99;100.00;100409.47;5014195;28;20184;-50
2021/12/30 04:45:48;;;;;;;1.63;0.63;;;;;;;12.01;100.00;100410.28;5017804;28;20237;-51
2021/12/30 04:48:15;;;;;;;1.17;0.50;;;;;;;12.04;100.00;100411.97;5011328;28;20303;-51
2021/12/30 04:50:41;;;;;;;1.50;0.47;;;;;;;12.03;100.00;100412.84;5009810;28;20239;-52
2021/12/30 04:53:08;;;;;;;1.57;0.53;;;;;;;12.05;100.00;100413.69;5013810;28;20192;-51
2021/12/30 04:55:34;;;;;;;1.10;0.60;;;;;;;12.07;100.00;100424.06;5014839;28;20640;-51
2021/12/30 04:57:59;;;;;;;0.80;0.50;;;;;;;12.07;100.00;100427.50;5014965;28;20347;-50
2021/12/30 05:00:24;;;;;;;0.50;0.40;;;;;;;12.09;100.00;100432.69;5016028;28;20197;-50
2021/12/30 05:03:23;;;;;;;0.60;0.40;;;;;;;12.10;100.00;100431.81;5015605;28;20210;-51
2021/12/30 05:05:45;;;;;;;1.17;0.60;;;;;;;12.12;100.00;100433.50;5015363;28;20208;-51
2021/12/30 05:08:12;;;;;;;0.70;0.60;;;;;;;12.13;100.00;100443.00;5013778;28;20635;-50
2021/12/30 05:10:38;;;;;;;0.63;0.40;;;;;;;12.14;100.00;100449.03;5037606;28;20601;-50
2021/12/30 05:13:05;;;;;;;0.87;0.40;;;;;;;12.18;100.00;100446.38;5018674;28;20268;-50
2021/12/30 05:15:31;;;;;;;0.67;0.40;;;;;;;12.19;100.00;100444.66;5020299;28;20726;-51
2021/12/30 05:17:57;;;;;;;1.40;0.50;;;;;;;12.22;100.00;100449.81;5014665;28;20220;-51
2021/12/30 05:20:22;;;;;;;0.60;0.40;;;;;;;12.23;100.00;100448.06;5017837;28;20276;-51
2021/12/30 05:22:48;;;;;;;0.60;0.40;;;;;;;12.25;100.00;100443.72;5019661;28;20227;-51
2021/12/30 05:25:15;;;;;;;0.80;0.50;;;;;;;12.26;100.00;100445.44;5022638;28;20191;-51
2021/12/30 05:27:41;;;;;;;1.80;0.40;;;;;;;12.26;100.00;100451.47;5019231;28;20250;-51
2021/12/30 05:30:09;;;;;;;0.20;0.20;;;;;;;12.29;100.00;100454.03;5016792;28;20297;-51
2021/12/30 05:32:35;;;;;;;0.93;0.20;;;;;;;12.30;100.00;100457.50;5013221;28;20228;-50
2021/12/30 05:35:02;;;;;;;0.33;0.33;;;;;;;12.31;100.00;100460.06;5016284;28;20194;-50
2021/12/30 05:37:28;;;;;;;0.40;0.40;;;;;;;12.33;100.00;100458.31;5015526;28;20224;-51
2021/12/30 05:39:53;;;;;;;0.53;0.40;;;;;;;12.35;100.00;100453.97;5018528;28;20622;-50
2021/12/30 05:42:22;;;;;;;1.03;0.40;;;;;;;12.38;100.00;100450.47;5015511;28;20259;-51
2021/12/30 05:44:49;;;;;;;0.60;0.50;;;;;;;12.40;100.00;100458.25;5018021;28;20188;-51
2021/12/30 05:47:14;;;;;;;0.87;0.40;;;;;;;12.40;100.00;100447.84;5018366;28;20262;-51
2021/12/30 05:49:40;;;;;;;1.70;0.47;;;;;;;12.39;100.00;100448.75;5018398;28;20687;-50
2021/12/30 05:52:05;;;;;;;0.57;0.33;;;;;;;12.38;100.00;100450.47;5014713;28;20203;-50
2021/12/30 05:54:31;;;;;;;0.63;0.43;;;;;;;12.37;100.00;100463.47;5012257;28;20204;-52
2021/12/30 05:56:56;;;;;;;0.53;0.30;;;;;;;12.36;100.00;100470.38;5023347;28;20685;-50
2021/12/30 05:59:21;;;;;;;0.50;0.30;;;;;;;12.37;100.00;100473.84;5030030;28;20338;-50
2021/12/30 06:01:47;;;;;;;0.77;0.30;;;;;;;12.39;100.00;100477.28;5031618;28;20550;-50
2021/12/30 06:04:12;;;;;;;0.47;0.40;;;;;;;12.39;100.00;100483.31;5029099;28;20367;-51
2021/12/30 06:06:38;;;;;;;1.20;0.30;;;;;;;12.42;100.00;100485.00;5035597;28;20192;-51
2021/12/30 06:09:03;;;;;;;0.70;0.30;;;;;;;12.42;100.00;100485.00;5027961;28;20206;-51
2021/12/30 06:11:28;;;;;;;1.00;0.30;;;;;;;12.43;100.00;100481.53;5024794;28;20649;-50
2021/12/30 06:13:54;;;;;;;1.23;0.30;;;;;;;12.44;100.00;100480.66;5016423;28;20258;-50
2021/12/30 06:16:19;;;;;;;0.43;0.33;;;;;;;12.45;100.00;100484.97;5021101;28;20721;-51
2021/12/30 06:18:44;;;;;;;0.67;0.30;;;;;;;12.45;100.00;100490.16;5017983;28;20720;-51
2021/12/30 06:21:10;;;;;;;0.57;0.20;;;;;;;12.45;100.00;100492.75;5024003;28;21051;-51
2021/12/30 06:23:35;;;;;;;0.30;0.30;;;;;;;12.48;100.00;100495.31;5017954;28;20202;-51
2021/12/30 06:26:00;;;;;;;0.43;0.40;;;;;;;12.48;100.00;100497.91;5031907;28;20220;-51
2021/12/30 06:28:26;;;;;;;0.30;0.30;;;;;;;12.50;100.00;100497.00;5016827;28;20327;-51
2021/12/30 06:30:51;;;;;;;0.97;0.30;;;;;;;12.52;100.00;100499.59;5019241;28;20205;-51
2021/12/30 06:33:16;;;;;;;0.40;0.30;;;;;;;12.53;100.00;100503.91;5022062;28;20193;-51
2021/12/30 06:35:42;;;;;;;0.50;0.30;;;;;;;12.54;100.00;100500.44;5019207;28;20613;-51
2021/12/30 06:38:07;;;;;;;0.77;0.40;;;;;;;12.56;100.00;100500.41;5022047;28;20203;-51
2021/12/30 06:40:32;;;;;;;1.57;0.43;;;;;;;12.57;100.00;100499.53;5015657;28;20812;-51
2021/12/30 06:42:58;;;;;;;0.30;0.27;;;;;;;12.56;100.00;100506.44;5013743;28;20640;-51
2021/12/30 06:45:24;;;;;;;1.90;0.40;;;;;;;12.56;100.00;100513.38;5016506;28;20273;-50
2021/12/30 06:47:51;;;;;;;0.70;0.40;;;;;;;12.57;100.00;100507.31;5017117;28;20206;-51
2021/12/30 06:50:17;;;;;;;0.73;0.40;;;;;;;12.59;100.00;100510.75;5017325;28;20663;-50
2021/12/30 06:52:46;;;;;;;0.33;0.30;;;;;;;12.60;100.00;100528.06;5015490;28;20192;-51
2021/12/30 06:55:12;;;;;;;0.43;0.30;;;;;;;12.59;100.00;100531.53;5011796;28;20609;-51
2021/12/30 06:57:38;;;;;;;0.40;0.40;;;;;;;12.60;100.00;100543.63;5021152;28;20210;-51
2021/12/30 07:00:05;;;;;;;0.83;0.40;;;;;;;12.64;100.00;100546.16;5025134;28;20421;-50
2021/12/30 07:02:34;;;;;;;0.70;0.30;;;;;;;12.65;100.00;100547.00;5043620;28;20192;-50
2021/12/30 07:04:59;;;;;;;0.20;0.20;;;;;;;12.64;100.00;100551.34;5017746;28;20193;-51
2021/12/30 07:07:25;;;;;;;0.40;0.40;;;;;;;12.68;100.00;100553.91;5009887;28;20228;-50
2021/12/30 07:09:51;;;;;;;0.53;0.30;;;;;;;12.68;100.00;100556.50;5020662;28;20222;-51
2021/12/30 07:12:16;;;;;;;0.70;0.30;;;;;;;12.69;100.00;100560.81;5024591;28;20271;-51
2021/12/30 07:14:42;;;;;;;0.60;0.50;;;;;;;12.70;100.00;100571.19;5020565;28;20192;-51
2021/12/30 07:17:07;;;;;;;0.33;0.33;;;;;;;12.72;100.00;100578.94;5027601;28;20693;-51
2021/12/30 07:19:33;;;;;;;0.80;0.43;;;;;;;12.73;100.00;100584.13;5028489;28;20185;-50
2021/12/30 07:21:58;;;;;;;0.40;0.20;;;;;;;12.73;100.00;100585.84;5028514;28;20254;-50
2021/12/30 07:24:23;;;;;;;0.60;0.40;;;;;;;12.77;100.00;100590.13;5027542;28;20257;-51
2021/12/30 07:26:50;;;;;;;1.00;0.80;;;;;;;12.79;100.00;100590.97;5021483;28;20209;-50
2021/12/30 07:29:16;;;;;;;1.17;0.70;;;;;;;12.80;100.00;100593.53;5024546;28;20238;-51
2021/12/30 07:31:44;;;;;;;0.77;0.53;;;;;;;12.81;100.00;100597.84;5026756;28;20267;-50
2021/12/30 07:34:10;;;;;;;0.70;0.43;;;;;;;12.84;100.00;100598.69;5027072;28;20207;-50
2021/12/30 07:36:35;;;;;;;2.73;0.70;;;;;;;12.87;100.00;100598.66;5019249;28;20266;-51
2021/12/30 07:39:01;;;;;;;1.13;0.60;;;;;;;12.88;100.00;100603.81;5022644;28;20180;-50
2021/12/30 07:41:26;;;;;;;0.40;0.33;;;;;;;12.89;100.00;100609.91;5025067;28;20186;-50
2021/12/30 07:43:52;;;;;;;0.47;0.40;;;;;;;12.89;100.00;100620.28;5021559;28;20190;-50
2021/12/30 07:46:18;;;;;;;0.80;0.57;;;;;;;12.90;100.00;100620.25;5023601;28;20655;-51
2021/12/30 07:48:43;;;;;;;1.40;0.50;;;;;;;12.92;100.00;100635.84;5023494;28;20219;-51
2021/12/30 07:51:08;;;;;;;0.57;0.40;;;;;;;12.93;100.00;100634.97;5018425;28;20184;-51
2021/12/30 07:53:34;;;;;;;0.97;0.50;;;;;;;12.96;100.00;100637.50;5023088;28;20181;-50
2021/12/30 07:56:02;;;;;;;0.53;0.53;;;;;;;12.96;100.00;100637.50;5026023;28;20210;-51
2021/12/30 07:58:28;;;;;;;1.27;0.47;;;;;;;12.98;100.00;100648.72;5020425;28;20291;-51
2021/12/30 08:00:53;;;;;;;2.20;0.60;;;;;;;12.98;100.00;100645.28;5031258;28;20193;-51
2021/12/30 08:03:19;;;;;;;1.20;0.50;;;;;;;12.98;100.00;100646.13;5018714;28;20196;-51
2021/12/30 08:05:45;;;;;;;1.50;0.50;;;;;;;12.99;100.00;100652.22;5017051;28;20197;-50
2021/12/30 08:08:11;;;;;;;1.03;0.50;;;;;;;12.98;100.00;100643.53;5020159;28;20245;-51
2021/12/30 08:10:36;;;;;;;0.93;0.40;;;;;;;12.98;100.00;100647.88;5023115;28;20511;-51
2021/12/30 08:13:03;;;;;;;0.57;0.50;;;;;;;12.95;100.00;100641.84;5027260;28;20292;-50
2021/12/30 08:15:29;;;;;;;1.07;0.60;;;;;;;12.96;100.00;100645.28;5022391;28;20577;-51
2021/12/30 08:17:54;;;;;;;1.33;0.60;;;;;;;12.96;100.00;100648.75;5019676;28;20216;-51
2021/12/30 08:20:22;;;;;;;0.57;0.50;;;;;;;12.98;100.00;100653.94;5025628;28;20852;-51
2021/12/30 08:22:48;;;;;;;0.70;0.63;;;;;;;12.98;100.00;100653.94;5025763;28;20223;-51
2021/12/30 08:25:14;;;;;;;0.70;0.60;;;;;;;12.98;100.00;100642.69;5027984;28;20222;-51
2021/12/30 08:27:41;;;;;;;0.70;0.50;;;;;;;12.96;100.00;100648.75;5018848;28;20215;-51
2021/12/30 08:30:09;;;;;;;0.70;0.50;;;;;;;12.95;100.00;100640.97;5019601;28;20559;-51
2021/12/30 08:32:35;;;;;;;1.20;0.60;;;;;;;12.97;100.00;100641.81;5026723;28;20572;-50
2021/12/30 08:35:01;;;;;;;1.60;0.70;;;;;;;13.00;100.00;100646.97;5021036;28;20194;-49
2021/12/30 08:37:26;;;;;;;0.80;0.60;;;;;;;12.99;100.00;100650.44;5022229;28;20735;-50
2021/12/30 08:39:51;;;;;;;0.60;0.60;;;;;;;13.03;100.00;100640.88;5020184;28;20194;-50
2021/12/30 08:42:22;;;;;;;0.50;0.50;;;;;;;13.04;100.00;100633.06;5025617;28;20187;-51
2021/12/30 08:44:48;;;;;;;1.00;0.63;;;;;;;13.08;100.00;100633.88;5017301;28;20203;-50
2021/12/30 08:47:15;;;;;;;1.27;0.60;;;;;;;13.12;100.00;100643.38;5013643;28;20220;-50
2021/12/30 08:49:44;;;;;;;0.60;0.60;;;;;;;13.15;100.00;100648.53;5022463;28;20667;-50
2021/12/30 08:52:10;;;;;;;0.87;0.67;;;;;;;13.18;100.00;100648.47;5023675;28;20231;-50
2021/12/30 08:54:38;;;;;;;0.60;0.50;;;;;;;13.21;100.00;100650.19;5029278;28;20188;-50
2021/12/30 08:57:04;;;;;;;0.73;0.47;;;;;;;13.25;100.00;100646.63;5022211;28;20210;-50
2021/12/30 08:59:29;;;;;;;0.77;0.70;;;;;;;13.31;100.00;100641.34;5023773;28;20194;-50
2021/12/30 09:01:55;;;;;;;0.73;0.70;;;;;;;13.39;100.00;100649.88;5021657;28;20732;-50
2021/12/30 09:04:21;;;;;;;1.00;0.50;;;;;;;13.47;100.00;100639.41;5023244;28;20298;-50
2021/12/30 09:06:46;;;;;;;0.50;0.50;;;;;;;13.58;100.00;100639.25;5023384;28;20199;-49
2021/12/30 09:09:12;;;;;;;0.80;0.60;;;;;;;13.69;100.00;100642.53;5022880;28;20675;-49
2021/12/30 09:11:37;;;;;;;0.73;0.60;;;;;;;13.80;100.00;100644.94;5027555;28;20640;-50
2021/12/30 09:14:03;;;;;;;0.80;0.50;;;;;;;13.93;100.00;100644.75;5019915;28;20198;-50
2021/12/30 09:16:28;;;;;;;0.40;0.40;;;;;;;14.04;100.00;100650.63;5026441;28;20273;-50
2021/12/30 09:18:53;;;;;;;0.70;0.50;;;;;;;14.15;100.00;100656.50;5024213;28;20230;-50
2021/12/30 09:21:19;;;;;;;0.50;0.50;;;;;;;14.30;100.00;100650.16;5024788;28;20211;-50
2021/12/30 09:23:44;;;;;;;0.77;0.57;;;;;;;14.43;100.00;100655.16;5026064;28;20202;-50
2021/12/30 09:26:10;;;;;;;0.60;0.60;;;;;;;14.56;100.00;100651.41;5019928;28;20226;-51
2021/12/30 09:28:36;;;;;;;1.00;0.60;;;;;;;14.64;100.00;100649.50;5023410;28;20223;-50
2021/12/30 09:31:02;;;;;;;0.57;0.50;;;;;;;14.75;100.00;100643.22;5024142;28;20196;-50
2021/12/30 09:33:27;;;;;;;0.40;0.30;;;;;;;14.85;100.00;100651.72;5015174;28;20238;-50
2021/12/30 09:35:52;;;;;;;0.40;0.40;;;;;;;14.89;100.00;100653.38;5020428;28;20723;-50
2021/12/30 09:38:19;;;;;;;0.53;0.30;;;;;;;14.87;100.00;100645.63;5023443;28;20211;-51
2021/12/30 09:40:45;;;;;;;1.33;0.40;;;;;;;14.89;100.00;100654.25;5024704;28;20215;-50
2021/12/30 09:43:11;;;;;;;0.50;0.50;;;;;;;14.93;100.00;100662.88;5015296;28;20679;-50
2021/12/30 09:45:40;;;;;;;0.70;0.40;;;;;;;14.94;100.00;100662.81;5016615;28;20197;-49
2021/12/30 09:48:09;;;;;;;0.60;0.40;;;;;;;14.93;100.00;100662.88;5015965;28;20332;-50
2021/12/30 09:50:39;;;;;;;0.93;0.50;;;;;;;14.91;100.00;100670.69;5021850;28;20346;-50
2021/12/30 09:53:05;;;;;;;0.33;0.33;;;;;;;14.92;100.00;100682.00;5017631;28;20191;-50
2021/12/30 09:55:31;;;;;;;0.50;0.50;;;;;;;14.93;100.00;100683.72;5028191;28;20204;-50
2021/12/30 09:57:56;;;;;;;0.60;0.30;;;;;;;14.93;100.00;100684.56;5024507;28;20564;-51
2021/12/30 10:00:23;;;;;;;0.67;0.40;;;;;;;14.97;100.00;100677.56;5028618;28;20659;-50
2021/12/30 10:02:49;;;;;;;0.53;0.40;;;;;;;14.97;100.00;100682.75;5029276;28;20651;-51
2021/12/30 10:05:20;;;;;;;0.57;0.50;;;;;;;15.01;100.00;100697.44;5025333;28;20687;-50
2021/12/30 10:07:46;;;;;;;0.60;0.50;;;;;;;15.01;100.00;100689.59;5012543;28;20306;-51
2021/12/30 10:10:35;;;;;;;0.30;0.30;;;;;;;15.02;100.00;100687.88;5024241;28;20318;-50
2021/12/30 10:13:15;;;;;;;0.83;0.50;;;;;;;15.04;100.00;100691.31;5023419;28;20192;-50
2021/12/30 10:15:45;;;;;;;0.40;0.37;;;;;;;15.08;100.00;100703.38;5020509;28;20201;-49
2021/12/30 10:18:11;;;;;;;0.27;0.27;;;;;;;15.06;100.00;100690.38;5024521;28;20245;-50
2021/12/30 10:20:40;;;;;;;0.43;0.40;;;;;;;15.06;100.00;100687.78;5024469;28;20658;-50
2021/12/30 10:23:14;;;;;;;0.73;0.30;;;;;;;15.06;100.00;100690.38;5025495;28;20194;-51
2021/12/30 10:25:45;;;;;;;0.40;0.40;;;;;;;15.07;100.00;100693.81;5018743;28;20202;-51
2021/12/30 10:28:18;;;;;;;0.30;0.30;;;;;;;15.08;100.00;100695.53;5027602;28;20211;-50
2021/12/30 10:30:44;;;;;;;0.40;0.40;;;;;;;15.05;100.00;100700.84;5029431;28;20188;-50
2021/12/30 10:33:17;;;;;;;0.50;0.40;;;;;;;15.01;100.00;100696.59;5025399;28;20249;-50
2021/12/30 10:35:43;;;;;;;0.27;0.27;;;;;;;14.97;100.00;100697.53;5022105;28;20244;-50
2021/12/30 10:38:10;;;;;;;0.50;0.30;;;;;;;14.93;100.00;100688.91;5016444;28;20216;-50
2021/12/30 10:40:42;;;;;;;0.60;0.40;;;;;;;14.93;100.00;100692.38;5024639;28;20190;-50
2021/12/30 10:43:28;;;;;;;0.47;0.30;;;;;;;14.94;100.00;100686.28;5024314;28;20187;-50
2021/12/30 10:46:07;;;;;;;0.40;0.40;;;;;;;14.93;100.00;100692.38;5016927;28;20195;-51
2021/12/30 10:48:34;;;;;;;0.60;0.60;;;;;;;14.95;100.00;100689.75;5019208;28;20229;-51
2021/12/30 10:51:17;;;;;;;0.90;0.40;;;;;;;14.94;100.00;100699.31;5023839;28;20672;-50
2021/12/30 10:53:43;;;;;;;0.40;0.40;;;;;;;14.93;100.00;100689.75;5025062;28;20190;-50
2021/12/30 10:56:21;;;;;;;0.43;0.43;;;;;;;14.95;100.00;100681.94;5025185;28;20187;-51
2021/12/30 10:58:47;;;;;;;0.50;0.50;;;;;;;14.97;100.00;100689.72;5019416;28;20393;-50
2021/12/30 11:01:17;;;;;;;1.33;0.30;;;;;;;15.01;100.00;100694.81;5018432;28;20197;-50
2021/12/30 11:03:54;;;;;;;0.47;0.40;;;;;;;15.00;100.00;100681.84;5020603;28;20648;-50
2021/12/30 11:06:20;;;;;;;0.27;0.27;;;;;;;14.97;100.00;100679.28;5016361;28;20194;-50
2021/12/30 11:08:49;;;;;;;0.40;0.40;;;;;;;14.90;100.00;100678.56;5022509;28;20212;-50
2021/12/30 11:11:26;;;;;;;0.60;0.37;;;;;;;14.87;100.00;100678.63;5031494;28;20188;-50
2021/12/30 11:14:08;;;;;;;0.30;0.30;;;;;;;14.84;100.00;100681.28;5018050;28;20524;-50
2021/12/30 11:16:59;;;;;;;0.43;0.40;;;;;;;14.90;100.00;100675.94;5026030;28;20223;-50
2021/12/30 11:19:26;;;;;;;0.50;0.40;;;;;;;14.99;100.00;100667.09;5021734;28;20266;-50